Pendleton, Oregon
Current Conditions -  °F | °C
As of 12:53 AM on Saturday 25 Oct 2014 (Local Time) from KPDT Reporting Station
Haze Haze  
Wind Chill: 47°   Ceiling: 300
Heat Index: 47°   Visibility: 0.75mi
Dew Point: 47°   Wind: 0mph
Humidity: 100%   Direction: NA
Pressure: 29.81"   Gusts: NA
Location:  45.67°N, 118.78°W
Report Text: KPDT 250753Z AUTO 00000KT 3/4SM BR OVC003 08/08 A2981 RMK AO2 SLP088 T00830083 401440067
Loading
Personal Weather Stations






























Interactive Weather Map New forecast layout! Learn more

10-Day Weather Forecast

Advertisements
Track Severe Weather on mobile